Herron, Michigan
Current Conditions -  °F | °C
As of 9:54 PM on Monday 20 Oct 2014 (Local Time) from KAPN Reporting Station
Haze Haze  
Wind Chill: 42°   Ceiling: 900
Heat Index: 46°   Visibility: 5mi
Dew Point: 44°   Wind: 7mph
Humidity: 93%   Direction: 310°NW
Pressure: 29.87"   Gusts: NA
Location:  45.02°N, 83.65°W
Report Text: KAPN 210154Z AUTO 31006KT 5SM BR BKN009 BKN013 OVC018 08/07 A2987 RMK AO2 RAB0058E21 SLP118 P0000 T00780067
Loading
Personal Weather Stations






























Interactive Weather Map
Tropical Storm Tracking
New forecast layout! Learn more

10-Day Weather Forecast

Advertisements
Track Severe Weather on mobile